Time;durP1;ratioP1;P1;durP2;ratioP2;P2;SDS_P1;SDS_P2;PMS_P1;PMS_P2;Temp;Humidity;BMP_temperature;BMP_pressure;BME280_temperature;BME280_humidity;BME280_pressure;Samples;Min_cycle;Max_cycle;Signal;HPM_P1;HPM_P2
2021/07/29 00:01:03;;;;;;;9.37;2.80;;;;;;;;;;5099389;28;20032;-68
2021/07/29 00:03:30;;;;;;;3.57;2.00;;;;;;;;;;5086531;28;20093;-68
2021/07/29 00:05:57;;;;;;;3.87;2.00;;;;;;;;;;5085584;28;20077;-68
2021/07/29 00:08:23;;;;;;;5.63;2.03;;;;;;;;;;5084512;28;20041;-68
2021/07/29 00:10:50;;;;;;;3.43;2.10;;;;;;;;;;5089819;28;20412;-69
2021/07/29 00:13:17;;;;;;;3.57;1.97;;;;;;;;;;5089954;28;20028;-69
2021/07/29 00:15:44;;;;;;;4.70;2.00;;;;;;;;;;5090742;28;20535;-69
2021/07/29 00:20:42;;;;;;;4.93;1.90;;;;;;;;;;5091037;28;20043;-68
2021/07/29 00:23:09;;;;;;;12.77;2.10;;;;;;;;;;5086513;28;20059;-68
2021/07/29 00:25:35;;;;;;;5.80;2.23;;;;;;;;;;5087233;28;20198;-68
2021/07/29 00:28:02;;;;;;;2.70;1.93;;;;;;;;;;5086586;28;20020;-68
2021/07/29 00:30:29;;;;;;;3.67;1.90;;;;;;;;;;5086933;28;20089;-68
2021/07/29 00:32:56;;;;;;;2.30;1.73;;;;;;;;;;5091049;28;20052;-68
2021/07/29 00:35:23;;;;;;;5.70;1.97;;;;;;;;;;5092116;28;20030;-68
2021/07/29 00:37:53;;;;;;;11.07;2.30;;;;;;;;;;5092447;28;20059;-68
2021/07/29 00:40:23;;;;;;;4.13;1.70;;;;;;;;;;5092166;28;20024;-68
2021/07/29 00:42:50;;;;;;;4.30;1.70;;;;;;;;;;5091965;28;20028;-68
2021/07/29 00:45:16;;;;;;;3.90;2.00;;;;;;;;;;5086582;28;20024;-68
2021/07/29 00:47:46;;;;;;;4.80;1.60;;;;;;;;;;5086579;28;20481;-68
2021/07/29 00:50:13;;;;;;;6.77;2.33;;;;;;;;;;5086752;28;20478;-68
2021/07/29 00:52:40;;;;;;;5.30;2.20;;;;;;;;;;5086926;28;20024;-68
2021/07/29 00:55:08;;;;;;;8.03;2.30;;;;;;;;;;5091167;28;20035;-68
2021/07/29 00:57:35;;;;;;;3.17;1.90;;;;;;;;;;5091971;28;22051;-68
2021/07/29 01:00:02;;;;;;;5.03;2.33;;;;;;;;;;5091551;28;20111;-68
2021/07/29 01:02:29;;;;;;;4.77;2.00;;;;;;;;;;5093371;28;20024;-68
2021/07/29 01:04:56;;;;;;;3.87;2.13;;;;;;;;;;5095766;28;20467;-68
2021/07/29 01:07:22;;;;;;;3.67;2.00;;;;;;;;;;5091180;28;20097;-68
2021/07/29 01:09:49;;;;;;;4.20;2.10;;;;;;;;;;5091024;28;20016;-68
2021/07/29 01:12:16;;;;;;;4.93;2.20;;;;;;;;;;5090037;28;20493;-68
2021/07/29 01:14:45;;;;;;;3.30;2.10;;;;;;;;;;5090569;28;20064;-68
2021/07/29 01:17:12;;;;;;;6.50;2.47;;;;;;;;;;5093337;28;20032;-68
2021/07/29 01:19:38;;;;;;;5.63;2.50;;;;;;;;;;5095418;28;20028;-68
2021/07/29 01:22:05;;;;;;;5.73;2.37;;;;;;;;;;5095545;28;20112;-68
2021/07/29 01:24:32;;;;;;;12.20;3.10;;;;;;;;;;5095911;28;20028;-68
2021/07/29 01:26:59;;;;;;;7.27;2.30;;;;;;;;;;5095281;28;20072;-68
2021/07/29 01:29:25;;;;;;;3.27;2.07;;;;;;;;;;5091678;28;20035;-68
2021/07/29 01:31:52;;;;;;;6.23;2.47;;;;;;;;;;5090107;28;20421;-68
2021/07/29 01:34:19;;;;;;;6.23;2.70;;;;;;;;;;5090303;28;20111;-67
2021/07/29 01:36:46;;;;;;;5.30;2.37;;;;;;;;;;5090157;28;20059;-68
2021/07/29 01:39:13;;;;;;;5.60;2.30;;;;;;;;;;5092857;28;20429;-68
2021/07/29 01:41:39;;;;;;;3.67;2.17;;;;;;;;;;5095137;28;20046;-68
2021/07/29 01:44:06;;;;;;;8.07;4.00;;;;;;;;;;5095179;28;20387;-68
2021/07/29 01:46:33;;;;;;;4.27;2.43;;;;;;;;;;5079490;28;20031;-67
2021/07/29 01:49:00;;;;;;;4.33;2.40;;;;;;;;;;5095115;28;20020;-67
2021/07/29 01:51:27;;;;;;;6.57;3.70;;;;;;;;;;5092387;28;20027;-68
2021/07/29 01:53:53;;;;;;;5.40;2.80;;;;;;;;;;5090031;28;20036;-67
2021/07/29 01:56:21;;;;;;;5.70;2.93;;;;;;;;;;5089520;28;20024;-68
2021/07/29 01:58:48;;;;;;;8.77;2.40;;;;;;;;;;5089662;28;20024;-68
2021/07/29 02:01:20;;;;;;;6.13;2.60;;;;;;;;;;5090970;28;20036;-67
2021/07/29 02:03:48;;;;;;;5.80;2.20;;;;;;;;;;5094825;28;20024;-67
2021/07/29 02:06:14;;;;;;;6.23;2.40;;;;;;;;;;5094645;28;20105;-66
2021/07/29 02:08:41;;;;;;;5.93;2.53;;;;;;;;;;5089090;28;20475;-66
2021/07/29 02:11:08;;;;;;;5.10;2.30;;;;;;;;;;5094709;28;20084;-66
2021/07/29 02:13:34;;;;;;;3.30;2.10;;;;;;;;;;5092170;28;20032;-67
2021/07/29 02:16:01;;;;;;;4.37;2.17;;;;;;;;;;5089378;28;20021;-67
2021/07/29 02:18:28;;;;;;;5.47;1.97;;;;;;;;;;5089172;28;20016;-66
2021/07/29 02:20:55;;;;;;;5.43;2.40;;;;;;;;;;5089518;28;20039;-66
2021/07/29 02:23:21;;;;;;;9.37;4.60;;;;;;;;;;5090334;28;20028;-67
2021/07/29 02:25:48;;;;;;;6.70;2.70;;;;;;;;;;5094271;28;20028;-66
2021/07/29 02:28:15;;;;;;;4.47;2.10;;;;;;;;;;5094664;28;20047;-66
2021/07/29 02:30:42;;;;;;;3.23;1.80;;;;;;;;;;5094366;28;20475;-67
2021/07/29 02:33:08;;;;;;;4.00;2.20;;;;;;;;;;5094638;28;20518;-67
2021/07/29 02:35:35;;;;;;;6.73;2.23;;;;;;;;;;5093153;28;20058;-67
2021/07/29 02:38:02;;;;;;;3.97;2.30;;;;;;;;;;5089184;28;20024;-66
2021/07/29 02:40:29;;;;;;;5.13;2.10;;;;;;;;;;5088736;28;20043;-66
2021/07/29 02:42:56;;;;;;;3.00;1.90;;;;;;;;;;5088738;28;20086;-67
2021/07/29 02:45:22;;;;;;;6.57;3.67;;;;;;;;;;5089129;28;20024;-67
2021/07/29 02:47:50;;;;;;;7.13;3.27;;;;;;;;;;5093835;28;20020;-66
2021/07/29 02:50:17;;;;;;;9.07;3.30;;;;;;;;;;5093592;28;20024;-65
2021/07/29 02:52:44;;;;;;;9.63;5.27;;;;;;;;;;5094267;28;20020;-66
2021/07/29 02:55:11;;;;;;;11.67;4.73;;;;;;;;;;5092791;28;20089;-66
2021/07/29 02:57:37;;;;;;;12.23;4.57;;;;;;;;;;5093923;28;20058;-66
2021/07/29 03:00:07;;;;;;;8.53;4.20;;;;;;;;;;5088093;28;20032;-67
2021/07/29 03:02:34;;;;;;;7.13;4.03;;;;;;;;;;5088820;28;20020;-67
2021/07/29 03:05:01;;;;;;;5.03;2.90;;;;;;;;;;5088258;28;20036;-66
2021/07/29 03:07:29;;;;;;;6.50;3.90;;;;;;;;;;5088356;28;20031;-67
2021/07/29 03:09:56;;;;;;;7.07;4.13;;;;;;;;;;5092951;28;20055;-66
2021/07/29 03:12:23;;;;;;;10.87;4.00;;;;;;;;;;5093462;28;20371;-66
2021/07/29 03:14:50;;;;;;;15.37;4.90;;;;;;;;;;5093392;28;20482;-66
2021/07/29 03:17:16;;;;;;;9.17;3.80;;;;;;;;;;5093119;28;20498;-66
2021/07/29 03:19:43;;;;;;;7.93;3.80;;;;;;;;;;5093344;28;20034;-66
2021/07/29 03:22:10;;;;;;;8.33;3.97;;;;;;;;;;5089066;28;20043;-66
2021/07/29 03:24:37;;;;;;;6.27;3.97;;;;;;;;;;5087641;28;20483;-66
2021/07/29 03:27:04;;;;;;;10.03;3.37;;;;;;;;;;5087613;28;20721;-66
2021/07/29 03:29:31;;;;;;;7.17;3.23;;;;;;;;;;5087512;28;20028;-67
2021/07/29 03:31:57;;;;;;;10.00;3.93;;;;;;;;;;5091302;28;20024;-66
2021/07/29 03:34:24;;;;;;;6.90;3.33;;;;;;;;;;5093334;28;20503;-66
2021/07/29 03:36:51;;;;;;;6.10;2.63;;;;;;;;;;5093145;28;20119;-66
2021/07/29 03:39:17;;;;;;;4.50;2.67;;;;;;;;;;5093418;28;20032;-66
2021/07/29 03:41:44;;;;;;;6.97;4.03;;;;;;;;;;5092803;28;20038;-66
2021/07/29 03:44:11;;;;;;;11.40;5.57;;;;;;;;;;5089402;28;20448;-66
2021/07/29 03:46:38;;;;;;;8.57;4.50;;;;;;;;;;5087999;28;20027;-66
2021/07/29 03:49:05;;;;;;;6.27;4.57;;;;;;;;;;5087416;28;20052;-66
2021/07/29 03:51:32;;;;;;;8.43;3.87;;;;;;;;;;5075338;28;20085;-66
2021/07/29 03:53:59;;;;;;;9.27;4.40;;;;;;;;;;5090132;28;20493;-65
2021/07/29 03:56:25;;;;;;;7.77;4.03;;;;;;;;;;5092875;28;20024;-67
2021/07/29 03:58:52;;;;;;;8.33;4.27;;;;;;;;;;5095811;28;20077;-68
2021/07/29 04:01:19;;;;;;;8.47;4.60;;;;;;;;;;5092744;28;20068;-69
2021/07/29 04:03:47;;;;;;;7.60;4.90;;;;;;;;;;5113224;28;20024;-66
2021/07/29 04:06:17;;;;;;;8.23;4.50;;;;;;;;;;5094175;28;20377;-66
2021/07/29 04:08:44;;;;;;;7.27;3.57;;;;;;;;;;5086927;28;20030;-66
2021/07/29 04:11:11;;;;;;;6.17;3.40;;;;;;;;;;5086691;28;20047;-67
2021/07/29 04:13:38;;;;;;;5.03;2.97;;;;;;;;;;5086035;28;20502;-67
2021/07/29 04:16:05;;;;;;;4.70;3.00;;;;;;;;;;5087610;28;20475;-67
2021/07/29 04:18:32;;;;;;;4.97;3.20;;;;;;;;;;5090719;28;20024;-67
2021/07/29 04:20:59;;;;;;;6.30;3.30;;;;;;;;;;5090621;28;20382;-66
2021/07/29 04:23:26;;;;;;;5.77;3.53;;;;;;;;;;5089603;28;20039;-67
2021/07/29 04:25:53;;;;;;;7.07;3.30;;;;;;;;;;5090504;28;20113;-67
2021/07/29 04:28:20;;;;;;;4.73;3.23;;;;;;;;;;5089127;28;20035;-67
2021/07/29 04:30:47;;;;;;;4.50;2.97;;;;;;;;;;5086060;28;20020;-67
2021/07/29 04:33:13;;;;;;;5.97;3.13;;;;;;;;;;5087361;28;20031;-67
2021/07/29 04:35:41;;;;;;;7.63;3.60;;;;;;;;;;5086653;28;20036;-67
2021/07/29 04:38:07;;;;;;;8.43;3.50;;;;;;;;;;5087561;28;20016;-66
2021/07/29 04:40:34;;;;;;;9.33;4.00;;;;;;;;;;5091718;28;20036;-67
2021/07/29 04:43:01;;;;;;;7.63;3.93;;;;;;;;;;5092438;28;20051;-66
2021/07/29 04:45:27;;;;;;;10.77;3.93;;;;;;;;;;5092250;28;20039;-67
2021/07/29 04:47:55;;;;;;;6.63;3.47;;;;;;;;;;5092013;28;20024;-67
2021/07/29 04:50:22;;;;;;;6.33;3.67;;;;;;;;;;5090972;28;20027;-66
2021/07/29 04:52:53;;;;;;;10.90;3.70;;;;;;;;;;5086816;28;20467;-67
2021/07/29 04:55:20;;;;;;;6.47;3.17;;;;;;;;;;5086611;28;20024;-67
2021/07/29 04:57:47;;;;;;;8.27;4.50;;;;;;;;;;5086210;28;20084;-66
2021/07/29 05:00:14;;;;;;;9.30;3.87;;;;;;;;;;5086385;28;20115;-67
2021/07/29 05:02:41;;;;;;;13.43;4.93;;;;;;;;;;5091938;28;20186;-66
2021/07/29 05:05:08;;;;;;;5.43;3.50;;;;;;;;;;5092139;28;20417;-66
2021/07/29 05:07:35;;;;;;;6.03;2.70;;;;;;;;;;5091487;28;20530;-68
2021/07/29 05:10:01;;;;;;;13.73;4.10;;;;;;;;;;5091866;28;20028;-68
2021/07/29 05:12:28;;;;;;;5.80;3.23;;;;;;;;;;5091467;28;20355;-68
2021/07/29 05:14:56;;;;;;;7.37;3.70;;;;;;;;;;5086554;28;20367;-68
2021/07/29 05:17:24;;;;;;;9.73;3.30;;;;;;;;;;5086550;28;20024;-68
2021/07/29 05:19:51;;;;;;;7.73;3.77;;;;;;;;;;5086622;28;20024;-67
2021/07/29 05:22:17;;;;;;;7.07;3.50;;;;;;;;;;5086462;28;20027;-68
2021/07/29 05:24:44;;;;;;;5.80;3.43;;;;;;;;;;5091366;28;20028;-67
2021/07/29 05:27:11;;;;;;;9.53;3.53;;;;;;;;;;5091557;28;20534;-67
2021/07/29 05:29:38;;;;;;;7.90;3.73;;;;;;;;;;5091654;28;20139;-67
2021/07/29 05:32:05;;;;;;;6.17;2.73;;;;;;;;;;5090933;28;20024;-66
2021/07/29 05:34:32;;;;;;;7.33;3.33;;;;;;;;;;5091378;28;20028;-66
2021/07/29 05:36:59;;;;;;;5.53;3.23;;;;;;;;;;5086796;28;20039;-66
2021/07/29 05:39:26;;;;;;;5.20;2.67;;;;;;;;;;5086586;28;20024;-67
2021/07/29 05:41:53;;;;;;;4.73;3.27;;;;;;;;;;5086119;28;20043;-66
2021/07/29 05:44:20;;;;;;;6.60;2.83;;;;;;;;;;5086551;28;20027;-66
2021/07/29 05:46:47;;;;;;;5.57;3.13;;;;;;;;;;5090362;28;20027;-66
2021/07/29 05:49:13;;;;;;;4.10;2.70;;;;;;;;;;5094173;28;20017;-66
2021/07/29 05:51:40;;;;;;;5.10;2.70;;;;;;;;;;5094719;28;20024;-66
2021/07/29 05:54:07;;;;;;;6.03;3.20;;;;;;;;;;5095370;28;20028;-66
2021/07/29 05:56:34;;;;;;;6.03;3.07;;;;;;;;;;5094928;28;20424;-65
2021/07/29 05:59:00;;;;;;;6.47;3.10;;;;;;;;;;5091119;28;20032;-66
2021/07/29 06:01:27;;;;;;;6.90;2.83;;;;;;;;;;5089451;28;20043;-66
2021/07/29 06:03:55;;;;;;;4.50;2.33;;;;;;;;;;5089908;28;20743;-65
2021/07/29 06:06:22;;;;;;;7.40;3.60;;;;;;;;;;5089566;28;20043;-65
2021/07/29 06:08:52;;;;;;;5.27;3.50;;;;;;;;;;5091838;28;20039;-65
2021/07/29 06:11:19;;;;;;;6.87;3.67;;;;;;;;;;5094712;28;20470;-67
2021/07/29 06:13:45;;;;;;;5.40;3.57;;;;;;;;;;5094467;28;20189;-67
2021/07/29 06:16:12;;;;;;;7.57;4.80;;;;;;;;;;5095165;28;20398;-66
2021/07/29 06:18:48;;;;;;;9.17;3.67;;;;;;;;;;5094431;28;20039;-66
2021/07/29 06:21:15;;;;;;;6.60;4.00;;;;;;;;;;5090929;28;20036;-66
2021/07/29 06:23:41;;;;;;;6.67;5.23;;;;;;;;;;5089071;28;20048;-66
2021/07/29 06:26:10;;;;;;;8.83;3.77;;;;;;;;;;5089019;28;20094;-66
2021/07/29 06:28:37;;;;;;;7.47;3.23;;;;;;;;;;5089205;28;20028;-65
2021/07/29 06:31:04;;;;;;;4.83;3.37;;;;;;;;;;5091543;28;20149;-65
2021/07/29 06:33:31;;;;;;;5.67;3.30;;;;;;;;;;5094313;28;20016;-65
2021/07/29 06:35:57;;;;;;;4.60;2.93;;;;;;;;;;5094545;28;20095;-66
2021/07/29 06:38:24;;;;;;;5.93;3.23;;;;;;;;;;5094256;28;20032;-65
2021/07/29 06:40:51;;;;;;;5.57;4.20;;;;;;;;;;5094041;28;20032;-65
2021/07/29 06:43:18;;;;;;;6.40;3.80;;;;;;;;;;5091143;28;20103;-65
2021/07/29 06:45:44;;;;;;;5.20;3.87;;;;;;;;;;5088933;28;20418;-65
2021/07/29 06:48:11;;;;;;;6.47;3.50;;;;;;;;;;5089062;28;20030;-65
2021/07/29 06:50:38;;;;;;;5.27;3.73;;;;;;;;;;5089080;28;20023;-65
2021/07/29 06:53:05;;;;;;;6.20;3.13;;;;;;;;;;5090728;28;20103;-64
2021/07/29 06:55:31;;;;;;;7.13;4.13;;;;;;;;;;5094337;28;20050;-64
2021/07/29 06:57:58;;;;;;;5.30;4.13;;;;;;;;;;5093445;28;20028;-64
2021/07/29 07:00:25;;;;;;;7.10;3.47;;;;;;;;;;5092893;28;20044;-64
2021/07/29 07:02:51;;;;;;;5.83;3.40;;;;;;;;;;5093914;28;20024;-64
2021/07/29 07:05:18;;;;;;;6.90;3.50;;;;;;;;;;5091890;28;20444;-64
2021/07/29 07:07:45;;;;;;;7.03;3.47;;;;;;;;;;5088462;28;20449;-64
2021/07/29 07:10:12;;;;;;;6.40;3.73;;;;;;;;;;5088550;28;20433;-64
2021/07/29 07:12:39;;;;;;;7.37;4.37;;;;;;;;;;5088580;28;20028;-64
2021/07/29 07:15:06;;;;;;;5.73;4.10;;;;;;;;;;5088875;28;20013;-64
2021/07/29 07:17:32;;;;;;;6.80;4.10;;;;;;;;;;5093530;28;20420;-64
2021/07/29 07:20:01;;;;;;;10.53;4.10;;;;;;;;;;5093331;28;20406;-64
2021/07/29 07:22:28;;;;;;;9.97;4.07;;;;;;;;;;5093587;28;20036;-64
2021/07/29 07:24:55;;;;;;;10.87;4.10;;;;;;;;;;5093658;28;20383;-64
2021/07/29 07:27:21;;;;;;;7.20;4.10;;;;;;;;;;5092053;28;20025;-64
2021/07/29 07:29:48;;;;;;;7.07;3.97;;;;;;;;;;5088432;28;20114;-64
2021/07/29 07:32:15;;;;;;;5.90;4.13;;;;;;;;;;5087700;28;20016;-64
2021/07/29 07:34:42;;;;;;;7.70;3.50;;;;;;;;;;5088094;28;20032;-64
2021/07/29 07:37:08;;;;;;;4.60;3.77;;;;;;;;;;5087867;28;20089;-64
2021/07/29 07:39:35;;;;;;;6.73;4.57;;;;;;;;;;5093117;28;20035;-64
2021/07/29 07:42:02;;;;;;;7.27;3.87;;;;;;;;;;5093064;28;20185;-64
2021/07/29 07:44:29;;;;;;;5.90;3.70;;;;;;;;;;5093179;28;20032;-64
2021/07/29 07:46:56;;;;;;;7.37;4.00;;;;;;;;;;5092985;28;20109;-64
2021/07/29 07:49:22;;;;;;;6.73;3.57;;;;;;;;;;5092936;28;20031;-64
2021/07/29 07:51:49;;;;;;;5.70;3.80;;;;;;;;;;5087587;28;20023;-65
2021/07/29 07:54:16;;;;;;;4.77;3.50;;;;;;;;;;5087315;28;20109;-64
2021/07/29 07:56:43;;;;;;;8.40;3.67;;;;;;;;;;5087357;28;20032;-64
2021/07/29 07:59:10;;;;;;;5.70;3.53;;;;;;;;;;5087727;28;20035;-64
2021/07/29 08:01:44;;;;;;;4.87;3.87;;;;;;;;;;5091583;28;20024;-64
2021/07/29 08:04:11;;;;;;;4.87;3.37;;;;;;;;;;5092783;28;20097;-64
2021/07/29 08:06:37;;;;;;;7.07;3.77;;;;;;;;;;5092271;28;20382;-64
2021/07/29 08:09:05;;;;;;;7.33;4.17;;;;;;;;;;5092395;28;20031;-65
2021/07/29 08:11:31;;;;;;;5.60;3.90;;;;;;;;;;5091999;28;20168;-64
2021/07/29 08:13:58;;;;;;;7.30;4.13;;;;;;;;;;5087223;28;20028;-64
2021/07/29 08:16:25;;;;;;;4.73;3.83;;;;;;;;;;5087533;28;20382;-64
2021/07/29 08:18:53;;;;;;;5.33;3.60;;;;;;;;;;5087043;28;20548;-64
2021/07/29 08:21:21;;;;;;;6.13;3.90;;;;;;;;;;5087042;28;20093;-64
2021/07/29 08:23:48;;;;;;;6.60;3.60;;;;;;;;;;5091636;28;20016;-64
2021/07/29 08:26:14;;;;;;;4.97;3.67;;;;;;;;;;5092146;28;20429;-65
2021/07/29 08:28:42;;;;;;;5.00;3.70;;;;;;;;;;5091723;28;20575;-63
2021/07/29 08:31:13;;;;;;;5.37;3.70;;;;;;;;;;5092271;28;20032;-64
2021/07/29 08:33:41;;;;;;;6.43;3.70;;;;;;;;;;5092045;28;20020;-64
2021/07/29 08:36:15;;;;;;;6.57;3.73;;;;;;;;;;5087465;28;20068;-64
2021/07/29 08:38:42;;;;;;;5.73;3.60;;;;;;;;;;5087141;28;20028;-64
2021/07/29 08:41:10;;;;;;;5.00;3.80;;;;;;;;;;5086551;28;20085;-63
2021/07/29 08:43:37;;;;;;;7.20;4.60;;;;;;;;;;5086763;28;20030;-64
2021/07/29 08:46:07;;;;;;;9.80;4.07;;;;;;;;;;5090864;28;20036;-64
2021/07/29 08:48:36;;;;;;;6.60;4.10;;;;;;;;;;5092257;28;20028;-64
2021/07/29 08:51:03;;;;;;;4.70;3.73;;;;;;;;;;5091600;28;20102;-64
2021/07/29 08:53:30;;;;;;;7.87;3.90;;;;;;;;;;5092391;28;20024;-64
2021/07/29 08:55:57;;;;;;;7.63;4.23;;;;;;;;;;5092118;28;20028;-63
2021/07/29 08:58:24;;;;;;;6.23;4.03;;;;;;;;;;5086688;28;20360;-64
2021/07/29 09:01:08;;;;;;;5.23;3.43;;;;;;;;;;5086550;28;20043;-64
2021/07/29 09:03:35;;;;;;;7.83;4.17;;;;;;;;;;5086309;28;20110;-64
2021/07/29 09:06:06;;;;;;;5.33;3.90;;;;;;;;;;5086630;28;20078;-63
2021/07/29 09:08:47;;;;;;;6.13;3.60;;;;;;;;;;5091384;28;20020;-63
2021/07/29 09:11:30;;;;;;;8.63;4.13;;;;;;;;;;5091668;28;20028;-63
2021/07/29 09:14:04;;;;;;;5.93;3.77;;;;;;;;;;5091716;28;20426;-63
2021/07/29 09:16:37;;;;;;;5.00;3.33;;;;;;;;;;5091908;28;20027;-64
2021/07/29 09:19:04;;;;;;;5.63;3.37;;;;;;;;;;5091085;28;20081;-64
2021/07/29 09:21:31;;;;;;;4.70;3.30;;;;;;;;;;5086617;28;20067;-64
2021/07/29 09:24:08;;;;;;;4.53;3.73;;;;;;;;;;5089482;28;20063;-64
2021/07/29 09:26:53;;;;;;;5.37;3.50;;;;;;;;;;5090489;28;20039;-64
2021/07/29 09:29:23;;;;;;;5.20;4.00;;;;;;;;;;5091503;28;20048;-63
2021/07/29 09:31:54;;;;;;;4.63;3.60;;;;;;;;;;5095636;28;20032;-64
2021/07/29 09:34:21;;;;;;;5.63;3.50;;;;;;;;;;5095256;28;20035;-64
2021/07/29 09:37:06;;;;;;;8.03;4.50;;;;;;;;;;5095109;28;20030;-63
2021/07/29 09:39:33;;;;;;;6.57;3.85;;;;;;;;;;5095402;28;20032;-64
2021/07/29 09:42:20;;;;;;;5.37;3.47;;;;;;;;;;5093362;28;20031;-64
2021/07/29 09:44:49;;;;;;;5.93;3.67;;;;;;;;;;5090452;28;20043;-64
2021/07/29 09:47:17;;;;;;;6.00;3.53;;;;;;;;;;5089928;28;20420;-64
2021/07/29 09:49:43;;;;;;;5.73;3.50;;;;;;;;;;5089515;28;20020;-64
2021/07/29 09:52:10;;;;;;;5.43;3.67;;;;;;;;;;5091871;28;20474;-64
2021/07/29 09:54:38;;;;;;;5.80;3.60;;;;;;;;;;5095329;28;20475;-63
2021/07/29 09:57:06;;;;;;;6.40;4.70;;;;;;;;;;5095043;28;20493;-64
2021/07/29 09:59:33;;;;;;;7.33;3.47;;;;;;;;;;5095054;28;20111;-64
2021/07/29 10:02:01;;;;;;;4.87;3.00;;;;;;;;;;5094935;28;20359;-63
2021/07/29 10:04:31;;;;;;;5.47;2.83;;;;;;;;;;5092578;28;20028;-64
2021/07/29 10:07:00;;;;;;;5.60;3.77;;;;;;;;;;5089630;28;20035;-64
2021/07/29 10:09:28;;;;;;;6.13;3.90;;;;;;;;;;5089320;28;20074;-64
2021/07/29 10:11:58;;;;;;;5.97;3.60;;;;;;;;;;5089421;28;20039;-63
2021/07/29 10:14:43;;;;;;;5.27;3.57;;;;;;;;;;5091264;28;20060;-63
2021/07/29 10:17:10;;;;;;;4.03;2.45;;;;;;;;;;5094621;28;20056;-64
2021/07/29 10:19:56;;;;;;;5.20;3.43;;;;;;;;;;5094951;28;20035;-64
2021/07/29 10:22:23;;;;;;;5.50;3.07;;;;;;;;;;5093872;28;20055;-63
2021/07/29 10:24:53;;;;;;;4.90;3.57;;;;;;;;;;5095005;28;20032;-63
2021/07/29 10:27:20;;;;;;;4.10;3.10;;;;;;;;;;5090964;28;20032;-64
2021/07/29 10:29:47;;;;;;;5.63;3.00;;;;;;;;;;5089153;28;20099;-64
2021/07/29 10:32:14;;;;;;;3.83;3.03;;;;;;;;;;5088664;28;20039;-64
2021/07/29 10:34:40;;;;;;;5.90;3.10;;;;;;;;;;5088930;28;20024;-63
2021/07/29 10:37:08;;;;;;;4.50;3.43;;;;;;;;;;5091512;28;20081;-63
2021/07/29 10:40:10;;;;;;;9.83;4.93;;;;;;;;;;5094301;28;20035;-63
2021/07/29 10:42:37;;;;;;;5.37;3.00;;;;;;;;;;5012612;28;20034;-63
2021/07/29 10:45:04;;;;;;;4.10;3.03;;;;;;;;;;5078370;28;20036;-63
2021/07/29 10:47:35;;;;;;;4.27;3.10;;;;;;;;;;5094261;28;20032;-63
2021/07/29 10:50:02;;;;;;;4.83;3.33;;;;;;;;;;5090393;28;20145;-64
2021/07/29 10:52:29;;;;;;;5.37;3.30;;;;;;;;;;5089041;28;20073;-64
2021/07/29 10:54:57;;;;;;;4.77;3.43;;;;;;;;;;5088431;28;21021;-64
2021/07/29 10:57:24;;;;;;;5.17;3.50;;;;;;;;;;5088216;28;20036;-64
2021/07/29 10:59:53;;;;;;;6.00;3.10;;;;;;;;;;5091892;28;20108;-63
2021/07/29 11:02:37;;;;;;;6.17;3.40;;;;;;;;;;5093552;28;20027;-63
2021/07/29 11:05:08;;;;;;;5.90;3.07;;;;;;;;;;5093681;28;20020;-63
2021/07/29 11:07:35;;;;;;;6.73;3.20;;;;;;;;;;5093754;28;20020;-63
2021/07/29 11:10:06;;;;;;;5.40;3.07;;;;;;;;;;5093653;28;20058;-63
2021/07/29 11:12:35;;;;;;;5.43;3.13;;;;;;;;;;5089084;28;20268;-63
2021/07/29 11:15:04;;;;;;;5.27;3.10;;;;;;;;;;5088533;28;20268;-64
2021/07/29 11:17:31;;;;;;;6.57;3.50;;;;;;;;;;5087980;28;20024;-63
2021/07/29 11:19:58;;;;;;;6.20;3.77;;;;;;;;;;5087851;28;20032;-64
2021/07/29 11:22:25;;;;;;;4.90;3.57;;;;;;;;;;5091786;28;20035;-63
2021/07/29 11:24:52;;;;;;;4.80;2.93;;;;;;;;;;5093925;28;20099;-63
2021/07/29 11:27:30;;;;;;;7.03;3.20;;;;;;;;;;5093300;28;20069;-65
2021/07/29 11:29:59;;;;;;;6.47;3.13;;;;;;;;;;5093291;28;20558;-64
2021/07/29 11:32:33;;;;;;;5.63;3.60;;;;;;;;;;5093102;28;20451;-63
2021/07/29 11:35:00;;;;;;;5.88;2.75;;;;;;;;;;5088657;28;20036;-64
2021/07/29 11:37:33;;;;;;;4.17;2.93;;;;;;;;;;5087859;28;20088;-63
2021/07/29 11:40:01;;;;;;;7.43;3.60;;;;;;;;;;5088024;28;20367;-63
2021/07/29 11:42:34;;;;;;;4.70;3.17;;;;;;;;;;5087487;28;20032;-63
2021/07/29 11:45:01;;;;;;;5.83;3.10;;;;;;;;;;5091730;28;20032;-63
2021/07/29 11:47:38;;;;;;;5.37;3.30;;;;;;;;;;5092305;28;20031;-63
2021/07/29 11:50:05;;;;;;;5.03;3.77;;;;;;;;;;5093275;28;20271;-63
2021/07/29 11:52:32;;;;;;;6.03;3.50;;;;;;;;;;5092431;28;20024;-63
2021/07/29 11:55:08;;;;;;;7.83;3.27;;;;;;;;;;5093120;28;20334;-63
2021/07/29 11:57:35;;;;;;;5.80;3.20;;;;;;;;;;5087683;28;20089;-63
2021/07/29 12:00:02;;;;;;;7.07;4.10;;;;;;;;;;5087566;28;20267;-63
2021/07/29 12:02:29;;;;;;;7.57;4.40;;;;;;;;;;5086574;28;20303;-63
2021/07/29 12:04:56;;;;;;;5.93;3.90;;;;;;;;;;5087351;28;20474;-63
2021/07/29 12:07:22;;;;;;;6.07;4.00;;;;;;;;;;5091294;28;20330;-63
2021/07/29 12:09:50;;;;;;;6.03;4.47;;;;;;;;;;5092517;28;20032;-63
2021/07/29 12:12:17;;;;;;;6.30;3.73;;;;;;;;;;5092070;28;20355;-63
2021/07/29 12:14:47;;;;;;;7.27;4.30;;;;;;;;;;5091942;28;20053;-63
2021/07/29 12:17:21;;;;;;;5.20;3.27;;;;;;;;;;5092240;28;20020;-63
2021/07/29 12:20:15;;;;;;;5.93;4.00;;;;;;;;;;5087325;28;20475;-63
2021/07/29 12:22:43;;;;;;;6.07;3.87;;;;;;;;;;5084296;28;20304;-63
2021/07/29 12:25:30;;;;;;;6.33;4.00;;;;;;;;;;5086864;28;20028;-63
2021/07/29 12:27:56;;;;;;;6.33;3.40;;;;;;;;;;5086643;28;20470;-63
2021/07/29 12:30:29;;;;;;;4.70;3.37;;;;;;;;;;5092316;28;20024;-64
2021/07/29 12:33:13;;;;;;;5.90;3.63;;;;;;;;;;5091474;28;20300;-63
2021/07/29 12:35:41;;;;;;;8.40;4.30;;;;;;;;;;5091802;28;20089;-63
2021/07/29 12:38:08;;;;;;;8.63;4.47;;;;;;;;;;5092476;28;20016;-63
2021/07/29 12:40:35;;;;;;;5.27;3.93;;;;;;;;;;5090832;28;20281;-63
2021/07/29 12:43:18;;;;;;;5.07;3.77;;;;;;;;;;5086362;28;20273;-63
2021/07/29 12:46:04;;;;;;;7.60;3.80;;;;;;;;;;5082493;28;20275;-63
2021/07/29 12:48:32;;;;;;;5.73;3.33;;;;;;;;;;5086418;28;20043;-63
2021/07/29 12:50:59;;;;;;;6.50;3.53;;;;;;;;;;5088643;28;20265;-64
2021/07/29 12:53:26;;;;;;;6.67;3.63;;;;;;;;;;5092300;28;20413;-64
2021/07/29 12:55:53;;;;;;;6.07;4.07;;;;;;;;;;5092052;28;20356;-63
2021/07/29 12:58:21;;;;;;;7.83;3.90;;;;;;;;;;5094902;28;20031;-63
2021/07/29 13:00:48;;;;;;;5.13;3.40;;;;;;;;;;5095902;28;20044;-63
2021/07/29 13:03:27;;;;;;;9.50;4.00;;;;;;;;;;5093330;28;20028;-64
2021/07/29 13:05:54;;;;;;;6.27;3.93;;;;;;;;;;5090840;28;20268;-64
2021/07/29 13:08:21;;;;;;;11.03;4.20;;;;;;;;;;5090641;28;20024;-65
2021/07/29 13:10:48;;;;;;;6.50;4.20;;;;;;;;;;5090374;28;20473;-63
2021/07/29 13:13:18;;;;;;;8.67;5.17;;;;;;;;;;5092531;28;20093;-63
2021/07/29 13:15:45;;;;;;;8.37;5.37;;;;;;;;;;5095355;28;20104;-63
2021/07/29 13:18:12;;;;;;;8.53;5.10;;;;;;;;;;5096078;28;20066;-63
2021/07/29 13:20:38;;;;;;;7.40;5.03;;;;;;;;;;5096035;28;20470;-63
2021/07/29 13:23:05;;;;;;;10.33;5.70;;;;;;;;;;5095649;28;20043;-63
2021/07/29 13:25:32;;;;;;;9.87;5.07;;;;;;;;;;5093668;28;20024;-64
2021/07/29 13:27:59;;;;;;;7.20;4.70;;;;;;;;;;5090492;28;20058;-64
2021/07/29 13:30:25;;;;;;;5.77;3.30;;;;;;;;;;5090657;28;20032;-63
2021/07/29 13:32:52;;;;;;;7.97;3.87;;;;;;;;;;5089913;28;20062;-64
2021/07/29 13:35:19;;;;;;;6.77;4.20;;;;;;;;;;5091257;28;20024;-63
2021/07/29 13:37:46;;;;;;;6.10;3.53;;;;;;;;;;5095449;28;20378;-64
2021/07/29 13:40:13;;;;;;;7.83;4.13;;;;;;;;;;5095295;28;20023;-64
2021/07/29 13:42:39;;;;;;;5.60;3.10;;;;;;;;;;5095312;28;20032;-63
2021/07/29 13:45:16;;;;;;;4.47;3.20;;;;;;;;;;5098897;28;20028;-60
2021/07/29 13:47:43;;;;;;;4.57;3.13;;;;;;;;;;5100341;28;20533;-61
2021/07/29 13:50:10;;;;;;;6.40;3.40;;;;;;;;;;5069797;28;20032;-62
2021/07/29 13:52:37;;;;;;;5.03;2.87;;;;;;;;;;5095024;28;20024;-62
2021/07/29 13:55:05;;;;;;;7.03;4.80;;;;;;;;;;5110652;28;20028;-64
2021/07/29 13:57:32;;;;;;;9.67;5.07;;;;;;;;;;5097386;28;20028;-64
2021/07/29 13:59:58;;;;;;;11.03;5.77;;;;;;;;;;5095328;28;20020;-64
2021/07/29 14:02:25;;;;;;;7.53;4.77;;;;;;;;;;5094536;28;20036;-65
2021/07/29 14:04:52;;;;;;;7.60;5.20;;;;;;;;;;5095067;28;20421;-65
2021/07/29 14:07:19;;;;;;;9.10;5.37;;;;;;;;;;5094878;28;20028;-64
2021/07/29 14:09:46;;;;;;;10.20;4.87;;;;;;;;;;5092839;28;20028;-65
2021/07/29 14:12:13;;;;;;;12.97;6.50;;;;;;;;;;5089344;28;20502;-65
2021/07/29 14:14:41;;;;;;;8.90;5.70;;;;;;;;;;5089379;28;20489;-65
2021/07/29 14:17:18;;;;;;;11.53;7.83;;;;;;;;;;5089161;28;20032;-65
2021/07/29 14:19:57;;;;;;;10.33;5.17;;;;;;;;;;5090189;28;20375;-64
2021/07/29 14:25:09;;;;;;;11.13;6.90;;;;;;;;;;5095319;28;20038;-65
2021/07/29 14:27:36;;;;;;;8.30;5.60;;;;;;;;;;5094443;28;20028;-65
2021/07/29 14:30:03;;;;;;;8.87;4.80;;;;;;;;;;5094869;28;20113;-65
2021/07/29 14:32:30;;;;;;;8.17;4.33;;;;;;;;;;5092091;28;20020;-65
2021/07/29 14:34:57;;;;;;;8.90;3.63;;;;;;;;;;5089059;28;20028;-65
2021/07/29 14:37:25;;;;;;;5.70;3.43;;;;;;;;;;5089220;28;20028;-66
2021/07/29 14:39:52;;;;;;;7.43;4.00;;;;;;;;;;5088993;28;20490;-66
2021/07/29 14:42:19;;;;;;;5.33;3.67;;;;;;;;;;5090394;28;20100;-65
2021/07/29 14:44:51;;;;;;;5.73;3.43;;;;;;;;;;5094220;28;20107;-65
2021/07/29 14:50:03;;;;;;;5.90;3.67;;;;;;;;;;5093565;28;20081;-66
2021/07/29 14:52:31;;;;;;;5.47;3.90;;;;;;;;;;5094040;28;20356;-66
2021/07/29 14:55:05;;;;;;;8.10;4.23;;;;;;;;;;5091635;28;20034;-66
2021/07/29 16:09:11;;;;;;;5.60;2.07;;;;;;;;;;5076194;28;20071;-65